ICAO code: LHPR | IATA code: QGY | AFTN: LHPRZPZX | english | deutsch
Időjárás: 2018-06-20 07:00 (UTC) | Hőmérséklet: 21.7 °C | QNH: 1022.9 hPa | Szél: 1.9 m/s | Részletek
Live ATC LHPR
Webkameránk élőképe

Győr-Pér Repülőtér időjárás adatok

Metar:
METAR LHPR 192145Z AUTO 30006KT CAVOK 19/14 Q1021 RMK BL


Taf:
TAF LHPR 192000Z NIL


Jelenidő:
Nem volt érdemleges időjárási jelenség az elmúlt órában
Időbélyeg: 2018-06-20 07:00:00 UTC
Hőmérséklet:
21.7 °C
 
Harmatpont:
15.5 °C
 
Rel. páratartalom:
68%
 
QNH:
1022.9 hPa
 
Szélsebesség:
1.9 m/s
Max:
3.5 m/s
Szélirány:
220°
 
Csapadék (1 óra):
0.0 mm
 
Látótávolság:
20000 m
 
RVR:
>1500 m RWY30
 
1. felhőréteg mennyisége:
0 octa
 
1. felhőréteg alapja:
m


Az adatokat szolgáltatja
az Országos Meteorológiai Szolgálat
Győr-Pér Repülőtér | H 9099 Pér, Repülőtér | Tel: +36/96/559-200 | Fax: +36/96/559-202

ICAO code: LHPR | IATA code: QGY | AFTN: LHPRZPZX


weboldal tervezés: IRQ